Time;durP1;ratioP1;P1;durP2;ratioP2;P2;SDS_P1;SDS_P2;PMS_P1;PMS_P2;Temp;Humidity;BMP_temperature;BMP_pressure;BME280_temperature;BME280_humidity;BME280_pressure;Samples;Min_cycle;Max_cycle;Signal;HPM_P1;HPM_P2
2022/11/18 00:00:55;;;;;;;1.53;0.70;;;10.50;99.90;;;;;;5071138;28;20427;-72
2022/11/18 00:03:21;;;;;;;1.77;1.00;;;10.40;99.90;;;;;;5068747;28;20473;-73
2022/11/18 00:05:56;;;;;;;1.30;0.50;;;10.40;99.90;;;;;;5070679;28;20433;-73
2022/11/18 00:08:23;;;;;;;1.25;0.40;;;10.40;99.90;;;;;;5069464;28;20478;-73
2022/11/18 00:10:49;;;;;;;2.38;0.60;;;10.30;99.90;;;;;;5070688;28;20438;-74
2022/11/18 00:16:05;;;;;;;1.40;0.50;;;10.20;99.90;;;;;;5070783;28;20406;-73
2022/11/18 00:18:30;;;;;;;1.50;0.60;;;10.30;99.90;;;;;;5070370;28;20388;-74
2022/11/18 00:21:07;;;;;;;1.00;0.50;;;10.20;99.90;;;;;;5070501;28;20382;-73
2022/11/18 00:23:33;;;;;;;1.15;0.40;;;10.20;99.90;;;;;;5069709;28;20465;-73
2022/11/18 00:26:13;;;;;;;0.80;0.50;;;10.20;99.90;;;;;;5070262;28;20440;-73
2022/11/18 00:28:40;;;;;;;0.60;0.40;;;10.20;99.90;;;;;;5069239;28;20757;-73
2022/11/18 00:31:11;;;;;;;1.35;0.50;;;10.20;99.90;;;;;;5070397;28;20499;-73
2022/11/18 00:33:37;;;;;;;1.10;0.40;;;10.20;99.90;;;;;;5068184;28;20389;-73
2022/11/18 00:36:04;;;;;;;1.40;0.50;;;10.20;99.90;;;;;;5070264;28;20406;-73
2022/11/18 00:38:30;;;;;;;0.50;0.30;;;10.20;99.90;;;;;;5070173;28;20472;-72
2022/11/18 00:41:04;;;;;;;1.30;0.40;;;10.30;99.90;;;;;;5070281;28;20715;-73
2022/11/18 00:43:30;;;;;;;1.10;0.50;;;10.30;99.90;;;;;;5069462;28;20835;-73
2022/11/18 00:45:56;;;;;;;1.00;0.40;;;10.30;99.90;;;;;;5070111;28;20513;-72
2022/11/18 00:48:22;;;;;;;0.80;0.30;;;10.30;99.90;;;;;;5069805;28;20395;-72
2022/11/18 00:50:52;;;;;;;0.60;0.30;;;10.30;99.90;;;;;;5070127;28;20380;-72
2022/11/18 00:53:19;;;;;;;0.90;0.40;;;10.20;99.90;;;;;;5069451;28;20384;-72
2022/11/18 00:55:44;;;;;;;0.40;0.30;;;10.10;99.90;;;;;;5070209;28;20460;-72
2022/11/18 00:58:13;;;;;;;0.52;0.30;;;10.10;99.90;;;;;;5070241;28;20411;-72
2022/11/18 01:00:43;;;;;;;0.80;0.30;;;10.00;99.90;;;;;;5070378;28;20380;-72
2022/11/18 01:03:10;;;;;;;0.65;0.30;;;10.00;99.90;;;;;;5069487;28;20425;-73
2022/11/18 01:05:36;;;;;;;1.27;0.30;;;9.90;99.90;;;;;;5069865;28;20403;-72
2022/11/18 01:08:02;;;;;;;1.40;0.30;;;9.90;99.90;;;;;;5070132;28;20396;-73
2022/11/18 01:10:29;;;;;;;0.90;0.40;;;9.90;99.90;;;;;;5069896;28;20411;-73
2022/11/18 01:15:41;;;;;;;0.90;0.30;;;9.80;99.90;;;;;;5069959;28;20381;-72
2022/11/18 01:18:06;;;;;;;0.45;0.30;;;9.80;99.90;;;;;;5070052;28;20737;-73
2022/11/18 01:20:33;;;;;;;0.50;0.33;;;9.80;99.90;;;;;;5070052;28;20466;-72
2022/11/18 01:22:58;;;;;;;1.80;0.40;;;9.80;99.90;;;;;;5069185;28;20992;-72
2022/11/18 01:25:24;;;;;;;0.82;0.60;;;9.80;99.90;;;;;;5070047;28;20380;-73
2022/11/18 01:27:49;;;;;;;0.70;0.30;;;9.90;99.90;;;;;;5069771;28;20399;-73
2022/11/18 01:30:15;;;;;;;0.60;0.40;;;9.80;99.90;;;;;;5069009;28;20383;-74
2022/11/18 01:32:42;;;;;;;1.70;0.30;;;9.80;99.90;;;;;;5069647;28;20875;-72
2022/11/18 01:35:08;;;;;;;1.05;0.47;;;9.80;99.90;;;;;;5069723;28;20403;-72
2022/11/18 01:37:34;;;;;;;1.38;0.30;;;9.80;99.90;;;;;;5070000;28;20420;-72
2022/11/18 01:39:59;;;;;;;0.50;0.30;;;9.80;99.90;;;;;;5069845;28;20388;-72
2022/11/18 01:42:25;;;;;;;0.60;0.30;;;9.80;99.90;;;;;;5069667;28;20391;-72
2022/11/18 01:45:18;;;;;;;1.50;0.30;;;9.80;99.90;;;;;;5069399;28;20411;-71
2022/11/18 01:47:48;;;;;;;0.40;0.20;;;9.80;99.90;;;;;;5070012;28;20411;-72
2022/11/18 01:50:15;;;;;;;0.90;0.30;;;9.80;99.90;;;;;;5069909;28;20442;-71
2022/11/18 01:52:41;;;;;;;0.60;0.30;;;9.80;99.90;;;;;;5068987;28;20372;-72
2022/11/18 01:55:13;;;;;;;0.43;0.30;;;9.70;99.90;;;;;;5069306;28;20391;-72
2022/11/18 01:57:40;;;;;;;0.50;0.30;;;9.70;99.90;;;;;;5069534;28;20430;-73
2022/11/18 02:00:07;;;;;;;0.40;0.30;;;9.70;99.90;;;;;;5070415;28;20885;-72
2022/11/18 02:02:36;;;;;;;0.90;0.40;;;9.60;99.90;;;;;;5071334;28;20395;-71
2022/11/18 02:05:04;;;;;;;1.40;0.30;;;9.50;99.90;;;;;;5073051;28;20467;-72
2022/11/18 02:07:33;;;;;;;0.60;0.40;;;9.40;99.90;;;;;;5072897;28;20785;-72
2022/11/18 02:10:02;;;;;;;0.80;0.40;;;9.30;99.90;;;;;;5073110;28;20434;-73
2022/11/18 02:12:28;;;;;;;0.70;0.40;;;9.20;99.90;;;;;;5072747;28;20391;-72
2022/11/18 02:14:54;;;;;;;1.40;0.40;;;9.20;99.90;;;;;;5072535;28;20383;-72
2022/11/18 02:17:32;;;;;;;1.50;0.40;;;9.20;99.90;;;;;;5072963;28;20395;-73
2022/11/18 02:19:58;;;;;;;1.20;0.30;;;9.10;99.90;;;;;;5072910;28;20375;-73
2022/11/18 02:22:56;;;;;;;0.50;0.38;;;9.10;99.90;;;;;;5072610;28;20387;-72
2022/11/18 02:26:02;;;;;;;0.80;0.50;;;9.10;99.90;;;;;;5072820;28;20738;-73
2022/11/18 02:28:36;;;;;;;1.30;0.50;;;9.10;99.90;;;;;;5070319;28;20391;-74
2022/11/18 02:31:06;;;;;;;0.70;0.40;;;9.10;99.90;;;;;;5072667;28;20372;-74
2022/11/18 02:33:51;;;;;;;0.80;0.40;;;9.10;99.90;;;;;;5071771;28;20400;-73
2022/11/18 02:36:27;;;;;;;0.60;0.40;;;9.10;99.90;;;;;;5072251;28;20380;-74
2022/11/18 02:38:58;;;;;;;1.40;0.50;;;9.10;99.90;;;;;;5072497;28;20866;-75
2022/11/18 02:41:27;;;;;;;0.77;0.40;;;9.10;99.90;;;;;;5052409;28;20389;-74
2022/11/18 02:43:58;;;;;;;1.67;0.60;;;9.10;99.90;;;;;;5051769;28;20436;-75
2022/11/18 02:46:28;;;;;;;0.60;0.40;;;9.10;99.90;;;;;;5034267;28;20405;-74
2022/11/18 02:48:55;;;;;;;1.40;0.50;;;9.10;99.90;;;;;;5052281;28;20381;-74
2022/11/18 02:51:27;;;;;;;1.00;0.60;;;9.10;99.90;;;;;;5052152;28;20479;-73
2022/11/18 02:53:57;;;;;;;0.80;0.40;;;9.10;99.90;;;;;;5051488;28;20876;-73
2022/11/18 02:56:24;;;;;;;1.10;0.43;;;9.10;99.90;;;;;;5052151;28;20381;-74
2022/11/18 02:58:50;;;;;;;1.80;0.40;;;9.20;99.90;;;;;;5052243;28;20386;-73
2022/11/18 03:01:26;;;;;;;0.70;0.50;;;9.20;99.90;;;;;;5052068;28;20389;-72
2022/11/18 03:03:51;;;;;;;0.60;0.40;;;9.10;99.90;;;;;;5051584;28;20389;-73
2022/11/18 03:06:37;;;;;;;6.50;0.60;;;9.10;99.90;;;;;;5089727;22;20483;-73
2022/11/18 03:09:22;;;;;;;0.70;0.50;;;9.10;99.90;;;;;;5091220;28;20760;-73
2022/11/18 03:11:52;;;;;;;1.10;0.50;;;9.20;99.90;;;;;;5085782;28;20369;-73
2022/11/18 03:14:42;;;;;;;1.10;0.40;;;9.20;99.90;;;;;;5091531;28;20410;-71
2022/11/18 03:17:42;;;;;;;1.05;0.40;;;9.20;99.90;;;;;;5053320;28;20766;-72
2022/11/18 03:20:11;;;;;;;0.70;0.40;;;9.20;99.90;;;;;;5066896;28;20395;-71
2022/11/18 03:22:59;;;;;;;0.90;0.40;;;9.20;99.90;;;;;;5070017;28;20456;-72
2022/11/18 03:25:49;;;;;;;0.40;0.30;;;9.20;99.90;;;;;;5069921;28;20517;-72
2022/11/18 03:28:28;;;;;;;1.13;0.40;;;9.20;99.90;;;;;;5070936;28;20420;-73
2022/11/18 03:31:19;;;;;;;0.70;0.40;;;9.20;99.90;;;;;;5065645;28;20396;-73
2022/11/18 03:33:50;;;;;;;0.50;0.30;;;9.30;99.90;;;;;;5064320;28;20387;-72
2022/11/18 03:36:20;;;;;;;0.80;0.40;;;9.30;99.90;;;;;;5069717;28;20778;-75
2022/11/18 03:38:52;;;;;;;1.00;0.60;;;9.30;99.90;;;;;;5064672;28;20395;-72
2022/11/18 03:41:20;;;;;;;0.77;0.40;;;9.20;99.90;;;;;;5070067;28;20406;-71
2022/11/18 03:43:56;;;;;;;0.82;0.40;;;9.20;99.90;;;;;;5045671;28;20396;-71
2022/11/18 03:46:29;;;;;;;1.40;0.40;;;9.20;99.90;;;;;;5068920;28;20834;-70
2022/11/18 03:48:57;;;;;;;0.80;0.70;;;9.30;99.90;;;;;;5065336;28;21162;-72
2022/11/18 03:51:32;;;;;;;0.82;0.43;;;9.30;99.90;;;;;;5070273;28;20781;-71
2022/11/18 03:54:16;;;;;;;1.00;0.30;;;9.30;99.90;;;;;;5069791;28;20523;-71
2022/11/18 03:56:48;;;;;;;1.10;0.30;;;9.30;99.90;;;;;;5066964;28;20502;-71
2022/11/18 03:59:34;;;;;;;0.60;0.40;;;9.30;99.90;;;;;;5050065;28;20550;-71
2022/11/18 04:02:19;;;;;;;0.55;0.30;;;9.30;99.90;;;;;;5070120;28;20773;-71
2022/11/18 04:04:48;;;;;;;0.50;0.40;;;9.30;99.90;;;;;;5045279;28;20493;-72
2022/11/18 04:07:48;;;;;;;0.80;0.30;;;9.30;99.90;;;;;;5068935;28;20415;-71
2022/11/18 04:10:24;;;;;;;0.50;0.30;;;9.30;99.90;;;;;;5055613;28;20443;-70
2022/11/18 04:13:05;;;;;;;1.05;0.30;;;9.20;99.90;;;;;;5055191;28;20389;-72
2022/11/18 04:15:31;;;;;;;0.75;0.35;;;9.20;99.90;;;;;;5064423;28;20376;-71
2022/11/18 04:17:57;;;;;;;0.50;0.20;;;9.20;99.90;;;;;;5069100;28;20438;-71
2022/11/18 04:20:23;;;;;;;0.80;0.40;;;9.20;99.90;;;;;;5066831;28;20411;-72
2022/11/18 04:22:49;;;;;;;0.40;0.30;;;9.20;99.90;;;;;;5067804;28;20407;-70
2022/11/18 04:25:15;;;;;;;0.53;0.40;;;9.20;99.90;;;;;;5069561;28;20486;-71
2022/11/18 04:27:40;;;;;;;0.80;0.32;;;9.30;99.90;;;;;;5068385;28;20399;-70
2022/11/18 04:30:07;;;;;;;0.40;0.30;;;9.30;99.90;;;;;;5070455;28;20905;-72
2022/11/18 04:32:33;;;;;;;0.50;0.40;;;9.30;99.90;;;;;;5069012;28;20477;-70
2022/11/18 04:34:58;;;;;;;0.90;0.30;;;9.30;99.90;;;;;;5069256;28;20487;-71
2022/11/18 04:37:24;;;;;;;0.80;0.30;;;9.30;99.90;;;;;;5069377;28;20418;-71
2022/11/18 04:39:50;;;;;;;0.40;0.30;;;9.30;99.90;;;;;;5069429;28;20422;-73
2022/11/18 04:42:16;;;;;;;0.75;0.40;;;9.40;99.90;;;;;;5067755;28;20411;-73
2022/11/18 04:44:42;;;;;;;0.40;0.30;;;9.40;99.90;;;;;;5050060;28;20755;-72
2022/11/18 04:47:07;;;;;;;0.40;0.20;;;9.50;99.90;;;;;;5068332;28;20415;-71
2022/11/18 04:49:34;;;;;;;1.30;0.30;;;9.40;99.90;;;;;;5070181;28;20410;-73
2022/11/18 04:52:00;;;;;;;0.90;0.30;;;9.40;99.90;;;;;;5069341;28;20935;-71
2022/11/18 04:54:26;;;;;;;0.70;0.30;;;9.40;99.90;;;;;;5068785;28;20411;-72
2022/11/18 04:56:53;;;;;;;1.10;0.30;;;9.30;99.90;;;;;;5068750;28;20399;-72
2022/11/18 04:59:21;;;;;;;0.40;0.20;;;9.20;99.90;;;;;;5069341;28;20498;-73
2022/11/18 05:01:48;;;;;;;0.40;0.30;;;9.20;99.90;;;;;;5068137;28;20407;-73
2022/11/18 05:04:16;;;;;;;0.50;0.20;;;9.20;99.90;;;;;;5068847;28;20399;-71
2022/11/18 05:06:41;;;;;;;0.50;0.30;;;9.10;99.90;;;;;;5068797;28;20426;-72
2022/11/18 05:09:07;;;;;;;1.40;0.30;;;9.00;99.90;;;;;;5068246;28;20753;-72
2022/11/18 05:14:17;;;;;;;0.40;0.30;;;8.90;99.90;;;;;;5067551;28;20430;-72
2022/11/18 05:16:43;;;;;;;0.60;0.40;;;8.90;99.90;;;;;;5068908;28;20869;-72
2022/11/18 05:19:09;;;;;;;1.10;0.40;;;8.80;99.90;;;;;;5068201;28;20400;-72
2022/11/18 05:21:35;;;;;;;0.60;0.30;;;8.80;99.90;;;;;;5068515;28;20417;-73
2022/11/18 05:24:01;;;;;;;0.50;0.30;;;8.80;99.90;;;;;;5066723;28;20515;-72
2022/11/18 05:26:27;;;;;;;0.50;0.30;;;8.80;99.90;;;;;;5068872;28;20415;-72
2022/11/18 05:28:52;;;;;;;1.80;0.30;;;8.80;99.90;;;;;;5068974;28;20453;-73
2022/11/18 05:31:18;;;;;;;0.60;0.40;;;8.80;99.90;;;;;;5065955;28;20901;-72
2022/11/18 05:33:44;;;;;;;0.53;0.30;;;8.80;99.90;;;;;;5062097;28;20450;-72
2022/11/18 05:36:16;;;;;;;0.90;0.30;;;8.90;99.90;;;;;;5071358;28;20384;-72
2022/11/18 05:38:42;;;;;;;0.50;0.30;;;8.90;99.90;;;;;;5073560;28;20395;-73
2022/11/18 05:41:08;;;;;;;1.00;0.30;;;8.90;99.90;;;;;;5072398;28;20402;-71
2022/11/18 05:43:34;;;;;;;0.40;0.30;;;8.80;99.90;;;;;;5073007;28;20873;-72
2022/11/18 05:46:01;;;;;;;1.20;0.30;;;8.80;99.90;;;;;;5073678;28;20391;-71
2022/11/18 05:48:27;;;;;;;0.40;0.20;;;8.80;99.90;;;;;;5065600;28;20406;-73
2022/11/18 05:50:53;;;;;;;0.40;0.30;;;8.80;99.90;;;;;;5073602;28;20425;-72
2022/11/18 05:53:21;;;;;;;0.40;0.30;;;8.80;99.90;;;;;;5072924;28;20383;-72
2022/11/18 05:55:57;;;;;;;1.40;0.30;;;8.90;99.90;;;;;;5073465;28;20888;-72
2022/11/18 05:58:23;;;;;;;0.40;0.30;;;8.80;99.90;;;;;;5072343;28;20403;-72
2022/11/18 06:00:53;;;;;;;0.60;0.30;;;8.80;99.90;;;;;;5073291;28;20380;-71
2022/11/18 06:03:23;;;;;;;0.50;0.30;;;8.80;99.90;;;;;;5072579;28;20379;-71
2022/11/18 06:05:52;;;;;;;1.40;0.30;;;8.80;99.90;;;;;;5069023;28;20412;-71
2022/11/18 06:08:19;;;;;;;0.82;0.30;;;8.80;99.90;;;;;;5068265;28;20457;-70
2022/11/18 06:10:47;;;;;;;0.40;0.25;;;8.90;99.90;;;;;;5070330;28;20491;-69
2022/11/18 06:13:19;;;;;;;0.50;0.32;;;8.90;99.90;;;;;;5071415;28;20525;-69
2022/11/18 06:15:45;;;;;;;0.45;0.30;;;8.90;99.90;;;;;;5067888;28;20396;-70
2022/11/18 06:18:18;;;;;;;1.30;1.08;;;9.00;99.90;;;;;;5067378;28;20395;-67
2022/11/18 06:20:44;;;;;;;0.80;0.50;;;9.00;99.90;;;;;;5067278;28;20399;-68
2022/11/18 06:23:11;;;;;;;1.00;0.63;;;8.90;99.90;;;;;;5070863;28;20881;-68
2022/11/18 06:25:38;;;;;;;1.20;0.95;;;9.00;99.90;;;;;;5067149;28;20831;-68
2022/11/18 06:28:04;;;;;;;1.10;0.80;;;9.00;99.90;;;;;;5060411;28;20408;-68
2022/11/18 06:30:29;;;;;;;1.10;0.80;;;9.00;99.90;;;;;;5067446;28;20415;-67
2022/11/18 06:32:55;;;;;;;0.80;0.70;;;9.00;99.90;;;;;;5068425;28;20396;-67
2022/11/18 06:35:21;;;;;;;0.63;0.40;;;9.00;99.90;;;;;;5069665;28;20403;-67
2022/11/18 06:37:47;;;;;;;1.35;0.30;;;9.00;99.90;;;;;;5070886;28;20379;-68
2022/11/18 06:40:12;;;;;;;0.50;0.30;;;9.00;99.90;;;;;;5071311;28;20773;-68
2022/11/18 06:45:22;;;;;;;0.90;0.40;;;9.00;99.90;;;;;;5068925;28;20538;-67
2022/11/18 06:47:47;;;;;;;0.80;0.70;;;9.00;99.90;;;;;;5059412;28;20488;-67
2022/11/18 06:50:13;;;;;;;1.10;0.40;;;9.00;99.90;;;;;;5070351;28;20456;-69
2022/11/18 06:52:38;;;;;;;0.60;0.40;;;9.10;99.90;;;;;;5058419;28;20962;-70
2022/11/18 06:55:07;;;;;;;0.60;0.40;;;9.10;99.90;;;;;;5067577;28;20400;-68
2022/11/18 06:57:33;;;;;;;1.10;0.50;;;9.00;99.90;;;;;;5067769;28;20395;-68
2022/11/18 06:59:59;;;;;;;0.90;0.40;;;9.00;99.90;;;;;;5068095;28;20447;-71
2022/11/18 07:02:24;;;;;;;1.10;0.40;;;9.10;99.90;;;;;;5075468;28;20486;-69
2022/11/18 07:04:50;;;;;;;0.50;0.30;;;9.10;99.90;;;;;;5066686;28;20414;-70
2022/11/18 07:07:15;;;;;;;1.70;0.50;;;9.10;99.90;;;;;;5066477;28;20400;-69
2022/11/18 07:09:41;;;;;;;1.50;0.50;;;9.10;99.90;;;;;;5069944;28;20408;-70
2022/11/18 07:12:06;;;;;;;8.30;6.20;;;9.10;99.90;;;;;;5068659;28;20431;-68
2022/11/18 07:14:32;;;;;;;2.00;0.60;;;9.10;99.90;;;;;;5070008;28;20491;-70
2022/11/18 07:16:57;;;;;;;0.50;0.43;;;9.10;99.90;;;;;;5072545;28;20761;-68
2022/11/18 07:19:23;;;;;;;1.60;0.60;;;9.10;99.90;;;;;;5059291;28;20407;-68
2022/11/18 07:21:49;;;;;;;0.80;0.70;;;9.10;99.90;;;;;;5062446;28;20461;-68
2022/11/18 07:24:15;;;;;;;0.82;0.52;;;9.10;99.90;;;;;;5056505;28;20403;-69
2022/11/18 07:26:41;;;;;;;0.90;0.63;;;9.40;99.90;;;;;;5065743;28;20461;-69
2022/11/18 07:29:07;;;;;;;1.40;0.80;;;9.10;99.90;;;;;;5068844;28;20396;-69
2022/11/18 07:31:36;;;;;;;1.40;0.60;;;9.10;99.90;;;;;;5071001;28;20963;-69
2022/11/18 07:34:02;;;;;;;0.60;0.57;;;9.10;99.90;;;;;;5069994;28;20466;-69
2022/11/18 07:36:28;;;;;;;1.00;0.50;;;9.20;99.90;;;;;;5070064;28;20971;-69
2022/11/18 07:38:54;;;;;;;1.50;0.60;;;9.10;99.90;;;;;;5071459;28;20977;-69
2022/11/18 07:41:22;;;;;;;0.60;0.50;;;9.10;99.90;;;;;;5050921;28;20484;-69
2022/11/18 07:43:49;;;;;;;0.73;0.60;;;9.10;99.90;;;;;;5050651;28;20482;-70
2022/11/18 07:46:14;;;;;;;0.70;0.60;;;9.20;99.90;;;;;;5051302;28;20389;-70
2022/11/18 07:48:41;;;;;;;0.80;0.60;;;9.20;99.90;;;;;;5051468;28;20403;-69
2022/11/18 07:51:07;;;;;;;0.70;0.57;;;9.20;99.90;;;;;;5051664;28;20475;-70
2022/11/18 07:53:34;;;;;;;1.60;0.60;;;9.30;99.90;;;;;;5050570;28;20386;-70
2022/11/18 07:56:00;;;;;;;0.73;0.57;;;9.30;99.90;;;;;;5051287;28;20784;-69
2022/11/18 07:58:26;;;;;;;1.38;1.10;;;9.20;99.90;;;;;;5051103;28;20472;-69
2022/11/18 08:00:51;;;;;;;1.20;0.60;;;9.30;99.90;;;;;;5051122;28;20862;-70
2022/11/18 08:03:17;;;;;;;0.63;0.55;;;9.30;99.90;;;;;;5032505;28;20792;-70
2022/11/18 08:05:42;;;;;;;1.50;0.90;;;9.40;99.90;;;;;;5050960;28;20401;-69
2022/11/18 08:08:09;;;;;;;0.90;0.60;;;9.40;99.90;;;;;;5051021;28;20401;-70
2022/11/18 08:10:35;;;;;;;0.90;0.50;;;9.40;99.90;;;;;;5051051;28;20384;-71
2022/11/18 08:13:01;;;;;;;0.60;0.50;;;9.40;99.90;;;;;;5050019;28;20382;-70
2022/11/18 08:15:26;;;;;;;1.20;0.60;;;9.40;99.90;;;;;;5050853;28;20389;-69
2022/11/18 08:17:52;;;;;;;2.33;0.80;;;9.40;99.90;;;;;;5050832;28;20385;-70
2022/11/18 08:20:17;;;;;;;1.00;0.60;;;9.40;99.90;;;;;;5033010;28;20397;-70
2022/11/18 08:22:43;;;;;;;2.00;0.70;;;9.40;99.90;;;;;;5050097;28;20404;-70
2022/11/18 08:25:08;;;;;;;0.82;0.70;;;9.40;99.90;;;;;;5050628;28;20392;-69
2022/11/18 08:27:34;;;;;;;0.90;0.60;;;9.40;99.90;;;;;;5050714;28;20437;-70
2022/11/18 08:29:59;;;;;;;0.90;0.60;;;9.50;99.90;;;;;;5050473;28;20389;-70
2022/11/18 08:32:25;;;;;;;0.90;0.60;;;9.50;99.90;;;;;;5050294;28;20426;-70
2022/11/18 08:34:51;;;;;;;0.60;0.50;;;9.50;99.90;;;;;;5050124;28;20476;-69
2022/11/18 08:37:17;;;;;;;1.40;1.03;;;9.50;99.90;;;;;;5048732;28;20391;-69
2022/11/18 08:39:42;;;;;;;1.10;0.70;;;9.50;99.90;;;;;;5065304;28;21102;-71
2022/11/18 08:42:09;;;;;;;4.77;0.93;;;9.50;99.90;;;;;;5063716;28;20430;-70
2022/11/18 08:44:35;;;;;;;1.00;0.70;;;9.60;99.90;;;;;;5057977;28;20410;-69
2022/11/18 08:47:01;;;;;;;0.90;0.68;;;9.50;99.90;;;;;;5060093;28;20975;-70
2022/11/18 08:49:27;;;;;;;1.10;0.65;;;9.60;99.90;;;;;;5060565;28;20385;-70
2022/11/18 08:51:52;;;;;;;0.80;0.70;;;9.60;99.90;;;;;;5058989;28;20872;-69
2022/11/18 08:54:18;;;;;;;2.28;0.80;;;9.60;99.90;;;;;;5041282;28;20398;-70
2022/11/18 08:56:44;;;;;;;2.40;0.98;;;9.60;99.90;;;;;;5065099;28;20766;-69
2022/11/18 08:59:09;;;;;;;1.67;0.80;;;9.50;99.90;;;;;;5065151;28;20419;-70
2022/11/18 09:01:36;;;;;;;1.17;0.77;;;9.50;99.90;;;;;;5065159;28;20402;-69
2022/11/18 09:04:02;;;;;;;0.65;0.50;;;9.60;99.90;;;;;;5067179;28;20392;-69
2022/11/18 09:06:28;;;;;;;1.10;0.80;;;9.60;99.90;;;;;;5097042;22;20433;-72
2022/11/18 09:08:56;;;;;;;1.05;0.90;;;9.60;99.90;;;;;;5086952;28;20383;-73
2022/11/18 09:11:23;;;;;;;2.20;1.00;;;9.60;99.90;;;;;;5081486;28;20412;-71
2022/11/18 09:13:54;;;;;;;1.70;1.03;;;9.60;99.90;;;;;;5089303;28;20375;-71
2022/11/18 09:16:22;;;;;;;1.60;0.85;;;9.60;99.90;;;;;;5072057;28;20511;-72
2022/11/18 09:18:48;;;;;;;1.20;1.10;;;9.70;99.90;;;;;;5070103;28;20425;-71
2022/11/18 09:21:14;;;;;;;1.50;0.80;;;9.60;99.90;;;;;;5083598;28;20450;-72
2022/11/18 09:23:39;;;;;;;2.53;1.10;;;9.60;99.90;;;;;;5089593;28;20530;-72
2022/11/18 09:26:08;;;;;;;1.90;1.00;;;9.60;99.90;;;;;;5089741;28;20899;-72
2022/11/18 09:28:34;;;;;;;1.30;0.90;;;9.60;99.90;;;;;;5070615;28;20447;-70
2022/11/18 09:31:05;;;;;;;1.70;1.00;;;9.50;99.90;;;;;;5090232;28;20796;-70
2022/11/18 09:33:30;;;;;;;1.10;0.70;;;9.50;99.90;;;;;;5089487;28;20840;-71
2022/11/18 09:35:56;;;;;;;0.80;0.60;;;9.50;99.90;;;;;;5089985;28;20381;-71
2022/11/18 09:38:21;;;;;;;1.00;0.80;;;9.60;99.90;;;;;;5090085;28;20390;-72
2022/11/18 09:41:08;;;;;;;1.08;0.82;;;9.50;99.90;;;;;;5090618;28;20401;-70
2022/11/18 09:43:56;;;;;;;1.55;0.88;;;9.50;99.90;;;;;;5089464;28;20426;-72
2022/11/18 09:46:31;;;;;;;3.10;1.20;;;9.50;99.90;;;;;;5090036;28;20945;-71
2022/11/18 09:49:14;;;;;;;1.13;0.80;;;9.50;99.90;;;;;;5090022;28;20426;-71
2022/11/18 09:51:45;;;;;;;2.00;0.85;;;9.50;99.90;;;;;;5089964;28;20424;-72
2022/11/18 09:54:21;;;;;;;1.13;1.00;;;9.60;99.90;;;;;;5089232;28;20461;-71
2022/11/18 09:56:48;;;;;;;1.90;0.90;;;9.60;99.90;;;;;;5089865;28;20370;-71
2022/11/18 09:59:21;;;;;;;1.45;1.00;;;9.70;99.90;;;;;;5089842;28;20768;-71
2022/11/18 10:01:48;;;;;;;1.60;0.80;;;9.70;99.90;;;;;;5089891;28;20575;-71
2022/11/18 10:04:19;;;;;;;0.80;0.80;;;9.80;99.90;;;;;;5089047;28;20374;-71
2022/11/18 10:06:47;;;;;;;1.50;0.90;;;9.70;99.90;;;;;;5089542;28;20445;-71
2022/11/18 10:09:24;;;;;;;1.20;0.80;;;9.80;99.90;;;;;;5089767;28;20971;-72
2022/11/18 10:12:13;;;;;;;0.77;0.70;;;9.80;99.90;;;;;;5089702;28;20389;-71
2022/11/18 10:14:54;;;;;;;1.20;0.80;;;9.80;99.90;;;;;;5088988;28;20933;-71
2022/11/18 10:17:31;;;;;;;1.20;0.80;;;9.80;99.90;;;;;;5089761;28;20382;-71
2022/11/18 10:20:21;;;;;;;2.20;0.97;;;9.90;99.90;;;;;;5089545;28;20428;-71
2022/11/18 10:23:10;;;;;;;0.80;0.77;;;9.90;99.90;;;;;;5090874;28;20892;-71
2022/11/18 10:25:35;;;;;;;0.90;0.70;;;10.00;99.90;;;;;;5093009;28;20385;-71
2022/11/18 10:28:14;;;;;;;1.30;0.90;;;10.10;99.90;;;;;;5091224;28;21232;-71
2022/11/18 10:30:40;;;;;;;1.90;1.17;;;10.20;99.90;;;;;;5093168;28;20395;-71
2022/11/18 10:33:20;;;;;;;0.80;0.70;;;10.30;99.90;;;;;;5092301;28;20378;-71
2022/11/18 10:35:46;;;;;;;2.30;0.77;;;10.30;99.90;;;;;;5092902;28;20370;-71
2022/11/18 10:38:12;;;;;;;1.60;1.08;;;10.30;99.90;;;;;;5092863;28;20836;-71
2022/11/18 10:40:45;;;;;;;1.20;0.90;;;10.20;99.90;;;;;;5092710;28;20390;-71
2022/11/18 10:43:12;;;;;;;1.40;0.70;;;10.20;99.90;;;;;;5092131;28;20374;-71
2022/11/18 10:45:38;;;;;;;0.93;0.77;;;10.10;99.90;;;;;;5092721;28;20390;-71
2022/11/18 10:48:18;;;;;;;0.80;0.70;;;10.10;99.90;;;;;;5092887;28;20835;-71
2022/11/18 10:50:44;;;;;;;1.03;0.60;;;10.20;99.90;;;;;;5092629;28;20786;-71
2022/11/18 10:53:30;;;;;;;1.00;0.60;;;10.10;99.90;;;;;;5091998;28;20848;-71
2022/11/18 10:55:58;;;;;;;1.20;0.80;;;10.20;99.90;;;;;;5092444;28;20477;-72
2022/11/18 10:58:25;;;;;;;1.20;0.63;;;10.30;99.90;;;;;;5074537;28;20443;-71
2022/11/18 11:00:51;;;;;;;1.23;0.90;;;10.20;99.90;;;;;;5092589;28;20465;-71
2022/11/18 11:03:25;;;;;;;1.23;0.67;;;10.20;99.90;;;;;;5091687;28;20477;-72
2022/11/18 11:06:12;;;;;;;0.80;0.60;;;10.10;99.90;;;;;;5092253;28;20493;-73
2022/11/18 11:08:51;;;;;;;1.30;0.80;;;9.90;99.90;;;;;;5074275;28;20402;-71
2022/11/18 11:11:29;;;;;;;1.00;0.80;;;9.90;99.90;;;;;;5092352;28;20374;-71
2022/11/18 11:14:05;;;;;;;1.10;0.90;;;10.00;99.90;;;;;;5091586;28;20385;-71
2022/11/18 11:16:37;;;;;;;0.90;0.80;;;10.10;99.90;;;;;;5092240;28;20469;-71
2022/11/18 11:19:05;;;;;;;1.00;0.80;;;10.00;99.90;;;;;;5092228;28;20429;-71
2022/11/18 11:21:31;;;;;;;1.23;0.73;;;10.00;99.90;;;;;;5092299;28;20378;-72
2022/11/18 11:23:57;;;;;;;2.40;1.00;;;10.00;99.90;;;;;;5091335;28;20382;-72
2022/11/18 11:26:45;;;;;;;2.10;0.90;;;10.10;99.90;;;;;;5091835;28;20398;-71
2022/11/18 11:29:50;;;;;;;1.38;0.90;;;10.10;99.90;;;;;;5072236;28;20386;-72
2022/11/18 11:32:43;;;;;;;1.88;0.90;;;10.10;99.90;;;;;;5091789;28;20382;-71
2022/11/18 11:35:29;;;;;;;1.02;0.93;;;10.10;99.90;;;;;;5073654;28;20432;-71
2022/11/18 11:37:59;;;;;;;1.30;0.90;;;9.90;99.90;;;;;;5091829;28;20377;-71
2022/11/18 11:40:38;;;;;;;0.80;0.80;;;9.90;99.90;;;;;;5079044;28;20467;-71
2022/11/18 11:43:26;;;;;;;0.90;0.70;;;9.90;99.90;;;;;;5052886;28;20411;-72
2022/11/18 11:46:16;;;;;;;1.30;0.70;;;10.00;99.90;;;;;;5071334;28;20792;-72
2022/11/18 11:49:11;;;;;;;1.10;0.80;;;9.80;99.90;;;;;;5071292;28;20398;-71
2022/11/18 11:51:52;;;;;;;0.70;0.70;;;9.90;99.90;;;;;;5053651;28;20921;-72
2022/11/18 11:54:37;;;;;;;1.17;0.80;;;10.20;99.90;;;;;;5070595;28;20384;-71
2022/11/18 11:57:26;;;;;;;1.90;0.60;;;10.50;99.90;;;;;;5071326;28;20384;-71
2022/11/18 11:59:57;;;;;;;0.82;0.70;;;10.70;99.90;;;;;;5071374;28;20449;-70
2022/11/18 12:03:00;;;;;;;2.30;1.00;;;10.60;99.90;;;;;;5070842;28;20437;-70
2022/11/18 12:05:41;;;;;;;0.90;0.80;;;10.50;99.90;;;;;;5070809;28;20823;-71
2022/11/18 12:08:23;;;;;;;1.00;0.90;;;10.60;99.90;;;;;;5071072;28;20399;-71
2022/11/18 12:11:19;;;;;;;0.80;0.80;;;10.80;99.90;;;;;;5070886;28;20858;-70
2022/11/18 12:14:04;;;;;;;1.40;1.00;;;10.70;99.90;;;;;;5052014;28;20414;-71
2022/11/18 12:16:30;;;;;;;1.17;0.95;;;10.70;99.90;;;;;;5070797;28;20423;-71
2022/11/18 12:19:06;;;;;;;1.63;1.00;;;10.40;99.90;;;;;;5070882;28;20426;-71
2022/11/18 12:21:42;;;;;;;1.40;0.90;;;10.50;99.90;;;;;;5052691;28;20387;-71
2022/11/18 12:24:29;;;;;;;1.55;1.10;;;10.60;99.90;;;;;;5051517;28;20395;-70
2022/11/18 12:27:16;;;;;;;1.10;0.70;;;10.50;99.90;;;;;;5070575;28;20469;-72
2022/11/18 12:29:54;;;;;;;0.70;0.63;;;10.50;99.90;;;;;;5023741;28;20444;-72
2022/11/18 12:32:30;;;;;;;1.00;0.57;;;10.50;99.90;;;;;;5070549;28;20387;-72
2022/11/18 12:35:09;;;;;;;1.00;0.60;;;10.40;99.90;;;;;;5071211;28;20433;-70
2022/11/18 12:37:50;;;;;;;1.00;0.60;;;10.40;99.90;;;;;;5070719;28;20430;-71
2022/11/18 12:40:47;;;;;;;1.10;0.60;;;10.40;99.90;;;;;;5063799;28;20401;-71
2022/11/18 12:46:30;;;;;;;1.20;0.70;;;10.40;99.90;;;;;;5090053;28;20396;-71
2022/11/18 12:48:56;;;;;;;1.65;0.98;;;10.40;99.90;;;;;;5073119;28;20745;-71
2022/11/18 12:51:23;;;;;;;1.50;0.70;;;10.50;99.90;;;;;;5090733;28;20389;-71
2022/11/18 12:53:53;;;;;;;1.20;0.90;;;10.40;99.90;;;;;;5090134;28;20370;-71
2022/11/18 12:56:21;;;;;;;1.70;0.77;;;10.40;99.90;;;;;;5090391;28;20755;-71
2022/11/18 12:58:48;;;;;;;1.08;0.98;;;10.40;99.90;;;;;;5091015;28;20874;-70
2022/11/18 13:01:17;;;;;;;1.90;0.75;;;10.30;99.90;;;;;;5089802;28;20434;-71
2022/11/18 13:03:42;;;;;;;0.93;0.80;;;10.40;99.90;;;;;;5083660;28;20386;-70
2022/11/18 13:06:27;;;;;;;2.20;1.20;;;10.40;99.90;;;;;;5082942;28;20541;-71
2022/11/18 13:08:57;;;;;;;1.80;0.60;;;10.70;99.90;;;;;;5090460;28;20385;-71
2022/11/18 13:11:44;;;;;;;1.50;0.70;;;10.70;99.90;;;;;;5087933;28;20437;-72
2022/11/18 13:17:50;;;;;;;1.70;0.82;;;10.70;99.90;;;;;;5052901;28;21004;-71
2022/11/18 13:20:32;;;;;;;1.55;1.00;;;10.90;99.90;;;;;;5091062;28;20399;-71
2022/11/18 13:25:49;;;;;;;2.63;0.80;;;10.50;99.90;;;;;;5087274;28;20386;-72
2022/11/18 13:28:34;;;;;;;1.80;0.90;;;10.60;99.90;;;;;;5094412;28;20410;-72
2022/11/18 13:31:12;;;;;;;1.20;0.70;;;10.50;99.90;;;;;;5087643;28;20401;-72
2022/11/18 13:33:38;;;;;;;2.15;1.10;;;10.50;99.90;;;;;;5081991;28;20740;-72
2022/11/18 13:36:24;;;;;;;1.50;0.90;;;10.60;99.90;;;;;;5087430;28;20374;-71